Time;durP1;ratioP1;P1;durP2;ratioP2;P2;SDS_P1;SDS_P2;PMS_P1;PMS_P2;Temp;Humidity;BMP_temperature;BMP_pressure;BME280_temperature;BME280_humidity;BME280_pressure;Samples;Min_cycle;Max_cycle;Signal;HPM_P1;HPM_P2
2021/09/27 00:01:48;;;;;;;19.43;15.87;;;17.50;89.80;;;;;;4999311;28;20815;-43
2021/09/27 00:04:15;;;;;;;26.83;17.17;;;17.50;89.80;;;;;;5001803;28;20449;-43
2021/09/27 00:06:42;;;;;;;22.07;16.60;;;17.50;89.80;;;;;;5018464;28;21000;-43
2021/09/27 00:09:09;;;;;;;23.73;17.33;;;17.40;89.80;;;;;;5001300;28;20440;-43
2021/09/27 00:11:36;;;;;;;26.60;17.80;;;17.40;89.80;;;;;;5004451;28;20456;-43
2021/09/27 00:14:03;;;;;;;18.30;15.37;;;17.30;89.80;;;;;;5003069;28;20853;-43
2021/09/27 00:16:31;;;;;;;20.80;16.37;;;17.30;89.80;;;;;;5008522;28;20494;-43
2021/09/27 00:18:58;;;;;;;22.20;15.70;;;17.30;89.80;;;;;;5006270;28;20468;-43
2021/09/27 00:21:28;;;;;;;22.90;17.03;;;17.20;89.80;;;;;;5004582;28;20456;-43
2021/09/27 00:23:56;;;;;;;21.53;17.10;;;17.20;89.80;;;;;;5005597;28;20487;-43
2021/09/27 00:26:24;;;;;;;19.57;16.20;;;17.20;89.80;;;;;;5006447;28;20497;-43
2021/09/27 00:28:51;;;;;;;25.50;18.13;;;17.20;89.80;;;;;;5005873;28;20468;-43
2021/09/27 00:31:19;;;;;;;25.77;18.50;;;17.20;89.80;;;;;;5005595;28;20869;-44
2021/09/27 00:33:46;;;;;;;22.70;16.93;;;17.10;89.80;;;;;;5003265;28;20453;-43
2021/09/27 00:36:13;;;;;;;25.50;17.20;;;17.10;89.80;;;;;;5004796;28;20453;-43
2021/09/27 00:38:40;;;;;;;22.67;17.97;;;17.10;89.80;;;;;;5006626;28;20886;-43
2021/09/27 00:41:12;;;;;;;24.93;19.50;;;17.10;89.80;;;;;;5004833;28;20460;-43
2021/09/27 00:43:41;;;;;;;25.87;17.17;;;17.10;89.80;;;;;;5002924;28;21009;-43
2021/09/27 00:46:16;;;;;;;23.10;18.23;;;17.10;89.80;;;;;;5005978;28;20936;-43
2021/09/27 00:48:44;;;;;;;21.27;17.20;;;17.10;89.80;;;;;;5003910;28;20870;-43
2021/09/27 00:51:18;;;;;;;20.83;15.50;;;17.00;89.80;;;;;;5003726;28;20487;-43
2021/09/27 00:53:52;;;;;;;20.87;16.90;;;17.00;89.80;;;;;;5005261;28;20457;-43
2021/09/27 00:56:25;;;;;;;21.17;15.30;;;17.00;89.80;;;;;;5005768;28;20461;-43
2021/09/27 00:58:55;;;;;;;18.40;15.20;;;17.00;89.80;;;;;;5001517;28;20467;-43
2021/09/27 01:01:22;;;;;;;23.87;16.30;;;17.00;89.80;;;;;;5006436;28;20455;-43
2021/09/27 01:03:50;;;;;;;19.20;15.77;;;17.00;89.80;;;;;;5000288;28;20476;-43
2021/09/27 01:06:39;;;;;;;21.50;15.83;;;17.00;89.80;;;;;;5011415;28;20538;-42
2021/09/27 01:09:35;;;;;;;25.20;16.90;;;16.90;89.80;;;;;;5005933;28;21125;-42
2021/09/27 01:12:23;;;;;;;21.43;16.37;;;16.90;89.80;;;;;;4993028;28;20491;-42
2021/09/27 01:15:15;;;;;;;16.87;14.47;;;16.90;89.80;;;;;;5003473;28;20993;-43
2021/09/27 01:17:54;;;;;;;17.53;14.03;;;16.90;89.80;;;;;;5001901;28;20471;-43
2021/09/27 01:20:21;;;;;;;16.00;14.20;;;16.90;89.70;;;;;;4999990;28;20487;-43
2021/09/27 01:22:57;;;;;;;14.80;13.20;;;16.90;89.60;;;;;;4999916;28;20457;-43
2021/09/27 01:25:52;;;;;;;12.83;11.33;;;16.90;89.60;;;;;;5001817;28;20477;-43
2021/09/27 01:29:09;;;;;;;13.10;11.80;;;16.80;89.30;;;;;;5003839;28;20465;-43
2021/09/27 01:32:02;;;;;;;12.80;11.30;;;16.80;89.20;;;;;;4987313;28;20465;-43
2021/09/27 01:34:40;;;;;;;12.10;10.80;;;16.80;89.20;;;;;;5002047;28;20540;-43
2021/09/27 01:37:11;;;;;;;14.03;11.93;;;16.70;89.30;;;;;;5004350;28;20839;-43
2021/09/27 01:39:47;;;;;;;14.00;11.73;;;16.70;89.30;;;;;;5005007;28;20551;-43
2021/09/27 01:42:21;;;;;;;13.10;11.80;;;16.70;89.30;;;;;;5000774;28;20468;-43
2021/09/27 01:44:59;;;;;;;13.20;11.30;;;16.60;89.40;;;;;;5002741;28;20993;-43
2021/09/27 01:47:35;;;;;;;13.47;12.07;;;16.60;89.30;;;;;;5003865;28;20504;-44
2021/09/27 01:50:13;;;;;;;12.90;11.60;;;16.60;89.20;;;;;;5003364;28;20926;-43
2021/09/27 01:52:57;;;;;;;12.67;11.00;;;16.60;89.30;;;;;;5006522;28;20456;-44
2021/09/27 01:55:29;;;;;;;13.57;12.13;;;16.60;89.40;;;;;;5003044;28;20837;-43
2021/09/27 01:58:08;;;;;;;14.43;12.60;;;16.60;89.60;;;;;;5002933;28;20574;-43
2021/09/27 02:00:41;;;;;;;17.03;13.90;;;16.60;89.60;;;;;;4998642;28;20492;-43
2021/09/27 02:03:29;;;;;;;14.40;12.67;;;16.50;89.60;;;;;;5000530;28;21344;-43
2021/09/27 02:06:10;;;;;;;16.50;14.10;;;16.50;89.80;;;;;;5008143;28;20444;-43
2021/09/27 02:09:12;;;;;;;18.50;14.30;;;16.50;89.80;;;;;;5015257;28;20461;-45
2021/09/27 02:11:44;;;;;;;19.17;13.33;;;16.50;89.80;;;;;;5005181;28;20459;-45
2021/09/27 02:14:14;;;;;;;22.03;15.90;;;16.50;89.80;;;;;;5018713;28;20906;-45
2021/09/27 02:17:06;;;;;;;20.37;16.30;;;16.50;89.80;;;;;;5009977;28;20450;-46
2021/09/27 02:19:33;;;;;;;24.33;16.97;;;16.50;89.80;;;;;;5004964;28;20469;-46
2021/09/27 02:22:09;;;;;;;21.60;16.00;;;16.50;89.80;;;;;;5004751;28;20468;-46
2021/09/27 02:24:49;;;;;;;23.73;16.30;;;16.50;89.80;;;;;;5006475;28;20495;-45
2021/09/27 02:27:15;;;;;;;24.67;16.00;;;16.50;89.80;;;;;;5005684;28;20488;-46
2021/09/27 02:29:42;;;;;;;25.97;18.43;;;16.50;89.80;;;;;;5001610;28;20984;-46
2021/09/27 02:32:16;;;;;;;28.20;18.77;;;16.50;89.80;;;;;;5004755;28;20471;-46
2021/09/27 02:35:04;;;;;;;28.80;20.07;;;16.60;89.80;;;;;;5001133;28;20465;-43
2021/09/27 02:37:43;;;;;;;30.53;20.10;;;16.60;89.80;;;;;;5008009;28;20454;-43
2021/09/27 02:40:27;;;;;;;30.57;19.77;;;16.60;89.80;;;;;;5003655;28;20456;-43
2021/09/27 02:42:58;;;;;;;29.93;19.80;;;16.60;89.80;;;;;;5001557;28;20816;-43
2021/09/27 02:45:27;;;;;;;31.63;20.67;;;16.70;89.80;;;;;;5003477;28;20464;-43
2021/09/27 02:48:01;;;;;;;33.03;20.50;;;16.70;89.80;;;;;;5000580;28;20852;-43
2021/09/27 02:50:31;;;;;;;35.13;18.67;;;16.70;89.80;;;;;;5004751;28;20444;-42
2021/09/27 02:52:58;;;;;;;33.53;22.87;;;16.70;89.80;;;;;;5004162;28;20445;-43
2021/09/27 02:55:53;;;;;;;31.50;20.60;;;16.70;89.80;;;;;;5017380;28;20455;-43
2021/09/27 02:58:20;;;;;;;38.07;21.73;;;16.80;89.80;;;;;;5004667;28;20459;-42
2021/09/27 03:01:11;;;;;;;35.03;23.40;;;16.80;89.80;;;;;;5003952;28;20448;-42
2021/09/27 03:03:46;;;;;;;37.57;22.10;;;16.80;89.80;;;;;;5020766;28;20461;-42
2021/09/27 03:06:21;;;;;;;38.00;21.77;;;16.80;89.80;;;;;;5006087;28;21012;-43
2021/09/27 03:09:05;;;;;;;40.80;23.03;;;16.80;89.80;;;;;;5003400;28;20459;-43
2021/09/27 03:11:52;;;;;;;35.33;21.50;;;16.90;89.80;;;;;;5004264;28;20457;-43
2021/09/27 03:14:41;;;;;;;38.30;22.50;;;16.90;89.80;;;;;;5000561;28;20479;-43
2021/09/27 03:17:22;;;;;;;35.77;20.47;;;16.90;89.80;;;;;;5014730;28;20464;-43
2021/09/27 03:20:13;;;;;;;33.30;21.20;;;16.90;89.80;;;;;;5002976;28;20483;-43
2021/09/27 03:22:49;;;;;;;32.57;20.30;;;16.90;89.80;;;;;;5005008;28;20465;-43
2021/09/27 03:25:33;;;;;;;32.90;20.00;;;16.90;89.80;;;;;;5007181;28;20459;-43
2021/09/27 03:28:12;;;;;;;33.80;19.80;;;16.90;89.80;;;;;;5003618;28;20860;-43
2021/09/27 03:31:13;;;;;;;34.07;20.33;;;16.90;89.80;;;;;;5002451;28;20961;-43
2021/09/27 03:33:53;;;;;;;34.07;20.50;;;16.90;89.80;;;;;;5001061;28;20827;-43
2021/09/27 03:36:37;;;;;;;29.83;18.57;;;16.90;89.80;;;;;;5000349;28;20821;-43
2021/09/27 03:39:32;;;;;;;30.67;19.40;;;16.90;89.80;;;;;;5005927;28;20464;-43
2021/09/27 03:42:10;;;;;;;31.90;19.50;;;16.90;89.80;;;;;;5003651;28;20471;-43
2021/09/27 03:44:59;;;;;;;35.73;20.60;;;16.90;89.80;;;;;;5004728;28;20456;-43
2021/09/27 03:47:36;;;;;;;38.00;21.80;;;16.90;89.80;;;;;;5001181;28;21043;-43
2021/09/27 03:50:16;;;;;;;41.67;22.67;;;16.90;89.80;;;;;;5004186;28;20456;-43
2021/09/27 03:53:01;;;;;;;37.10;21.83;;;16.90;89.80;;;;;;5001762;28;20450;-43
2021/09/27 03:55:45;;;;;;;42.80;21.40;;;16.90;89.80;;;;;;5004338;28;20448;-43
2021/09/27 03:58:22;;;;;;;38.60;22.97;;;16.90;89.80;;;;;;5000440;28;20556;-43
2021/09/27 04:01:08;;;;;;;38.60;21.07;;;16.90;89.80;;;;;;5004700;28;20663;-42
2021/09/27 04:03:56;;;;;;;37.33;20.77;;;16.90;89.80;;;;;;5006215;28;20957;-42
2021/09/27 04:06:53;;;;;;;34.53;20.47;;;16.80;89.80;;;;;;5002846;28;20825;-42
2021/09/27 04:09:38;;;;;;;41.30;22.27;;;16.80;89.80;;;;;;5019904;28;20953;-43
2021/09/27 04:12:17;;;;;;;43.70;21.97;;;16.80;89.80;;;;;;5006590;28;20452;-42
2021/09/27 04:14:44;;;;;;;38.23;21.60;;;16.80;89.80;;;;;;5016486;28;20847;-42
2021/09/27 04:17:17;;;;;;;36.80;22.17;;;16.80;89.80;;;;;;5003721;28;20468;-42
2021/09/27 04:20:01;;;;;;;31.83;19.83;;;16.80;89.80;;;;;;5001241;28;20457;-43
2021/09/27 04:22:31;;;;;;;36.53;22.43;;;16.90;89.80;;;;;;5011516;28;20463;-42
2021/09/27 04:25:06;;;;;;;34.00;20.27;;;16.90;89.80;;;;;;5004410;28;20510;-42
2021/09/27 04:27:57;;;;;;;32.00;21.13;;;16.80;89.80;;;;;;4999122;28;20574;-42
2021/09/27 04:30:43;;;;;;;33.20;21.23;;;16.80;89.80;;;;;;4999373;28;20853;-42
2021/09/27 04:33:22;;;;;;;33.90;20.83;;;16.90;89.80;;;;;;4998618;28;20460;-42
2021/09/27 04:36:03;;;;;;;33.57;19.93;;;16.90;89.80;;;;;;5002382;28;20995;-43
2021/09/27 04:38:31;;;;;;;32.43;19.83;;;16.90;89.80;;;;;;5001925;28;20476;-43
2021/09/27 04:41:20;;;;;;;34.90;20.53;;;16.90;89.80;;;;;;5003697;28;20461;-43
2021/09/27 04:43:49;;;;;;;35.43;19.70;;;16.90;89.80;;;;;;5003698;28;20472;-43
2021/09/27 04:46:37;;;;;;;33.73;19.07;;;16.80;89.80;;;;;;5001751;28;20782;-43
2021/09/27 04:49:16;;;;;;;34.30;18.27;;;16.80;89.80;;;;;;5001799;28;20452;-43
2021/09/27 04:52:04;;;;;;;26.57;16.20;;;16.90;89.80;;;;;;5001415;28;20455;-43
2021/09/27 04:55:06;;;;;;;28.07;16.40;;;16.90;89.80;;;;;;5001567;28;20452;-43
2021/09/27 04:58:08;;;;;;;29.57;17.17;;;16.90;89.80;;;;;;5003832;28;21250;-43
2021/09/27 05:00:35;;;;;;;24.40;15.77;;;16.90;89.80;;;;;;4982058;28;20472;-43
2021/09/27 05:03:23;;;;;;;25.80;16.07;;;16.90;89.80;;;;;;5020519;28;20464;-43
2021/09/27 05:05:53;;;;;;;23.20;15.80;;;16.80;89.80;;;;;;5005866;28;20463;-43
2021/09/27 05:09:02;;;;;;;28.10;15.50;;;16.80;89.80;;;;;;5004736;28;20496;-43
2021/09/27 05:11:45;;;;;;;21.47;13.97;;;16.80;89.80;;;;;;5007598;28;20464;-43
2021/09/27 05:14:17;;;;;;;27.13;15.03;;;16.80;89.80;;;;;;5003673;28;20480;-44
2021/09/27 05:17:06;;;;;;;25.07;14.90;;;16.80;89.80;;;;;;5005068;28;20980;-43
2021/09/27 05:20:02;;;;;;;24.57;16.73;;;16.80;89.80;;;;;;5009686;28;20460;-43
2021/09/27 05:22:34;;;;;;;20.97;14.27;;;16.80;89.80;;;;;;5000996;28;20456;-43
2021/09/27 05:25:13;;;;;;;25.50;15.50;;;16.80;89.80;;;;;;5004969;28;20460;-43
2021/09/27 05:28:18;;;;;;;29.43;15.00;;;16.70;89.80;;;;;;5005745;28;20546;-43
2021/09/27 05:31:02;;;;;;;24.83;16.37;;;16.70;89.80;;;;;;5006460;28;20560;-43
2021/09/27 05:33:43;;;;;;;23.87;15.57;;;16.70;89.80;;;;;;5007511;28;20452;-43
2021/09/27 05:36:28;;;;;;;25.23;15.80;;;16.70;89.80;;;;;;5006207;28;20463;-43
2021/09/27 05:39:12;;;;;;;29.00;16.80;;;16.70;89.80;;;;;;5002387;28;20958;-43
2021/09/27 05:41:44;;;;;;;29.23;18.50;;;16.60;89.80;;;;;;5017852;28;20454;-43
2021/09/27 05:44:22;;;;;;;27.10;17.40;;;16.70;89.80;;;;;;5005814;28;20451;-43
2021/09/27 05:47:04;;;;;;;23.87;15.57;;;16.60;89.80;;;;;;5002744;28;20833;-43
2021/09/27 05:49:53;;;;;;;29.37;17.00;;;16.60;89.80;;;;;;5007086;28;20957;-43
2021/09/27 05:52:43;;;;;;;25.83;16.43;;;16.60;89.80;;;;;;5001248;28;20453;-43
2021/09/27 05:55:16;;;;;;;26.70;17.10;;;16.70;89.80;;;;;;4995005;28;21012;-43
2021/09/27 05:57:58;;;;;;;23.67;15.00;;;16.70;89.80;;;;;;5004041;28;20467;-43
2021/09/27 06:00:25;;;;;;;23.67;14.40;;;16.80;89.80;;;;;;5019780;28;20476;-43
2021/09/27 06:03:16;;;;;;;25.03;17.00;;;16.80;89.80;;;;;;5003166;28;20511;-43
2021/09/27 06:06:05;;;;;;;28.30;16.90;;;16.80;89.80;;;;;;5003850;28;20812;-43
2021/09/27 06:08:49;;;;;;;25.57;15.50;;;16.80;89.80;;;;;;5003587;28;20495;-44
2021/09/27 06:11:38;;;;;;;24.80;15.63;;;16.80;89.80;;;;;;5003157;28;20543;-44
2021/09/27 06:14:14;;;;;;;27.03;14.80;;;16.80;89.80;;;;;;5005754;28;20463;-44
2021/09/27 06:16:52;;;;;;;23.10;14.80;;;16.80;89.80;;;;;;5001832;28;20465;-43
2021/09/27 06:19:53;;;;;;;28.70;16.47;;;16.80;89.80;;;;;;5002188;28;20440;-43
2021/09/27 06:22:32;;;;;;;25.20;14.73;;;16.80;89.80;;;;;;5002997;28;20468;-43
2021/09/27 06:25:17;;;;;;;26.23;16.10;;;16.80;89.80;;;;;;5005256;28;20542;-43
2021/09/27 06:28:24;;;;;;;23.43;15.43;;;16.80;89.80;;;;;;5005207;28;20484;-43
2021/09/27 06:31:00;;;;;;;27.10;16.30;;;16.80;89.80;;;;;;5003871;28;20444;-43
2021/09/27 06:33:39;;;;;;;28.13;16.73;;;16.80;89.80;;;;;;5006331;28;20490;-43
2021/09/27 06:36:09;;;;;;;29.43;17.00;;;16.80;89.80;;;;;;5001897;28;20984;-43
2021/09/27 06:38:38;;;;;;;25.57;15.83;;;16.80;89.80;;;;;;5000388;28;20472;-43
2021/09/27 06:41:11;;;;;;;24.30;14.77;;;16.80;89.80;;;;;;5006365;28;20464;-43
2021/09/27 06:43:39;;;;;;;26.30;15.87;;;16.80;89.80;;;;;;5001536;28;20471;-43
2021/09/27 06:46:06;;;;;;;28.53;16.80;;;16.80;89.80;;;;;;5005212;28;20460;-43
2021/09/27 06:48:34;;;;;;;28.53;17.63;;;16.80;89.80;;;;;;5000132;28;20902;-43
2021/09/27 06:51:01;;;;;;;26.60;16.70;;;16.80;89.80;;;;;;5004643;28;20938;-43
2021/09/27 06:53:30;;;;;;;25.07;16.20;;;16.90;89.80;;;;;;5001304;28;20451;-43
2021/09/27 06:55:59;;;;;;;26.53;16.30;;;16.90;89.80;;;;;;5001470;28;20456;-43
2021/09/27 06:58:26;;;;;;;22.43;15.80;;;16.90;89.80;;;;;;5002386;28;20465;-43
2021/09/27 07:00:54;;;;;;;25.77;15.50;;;16.90;89.80;;;;;;4998598;28;20690;-43
2021/09/27 07:03:21;;;;;;;23.43;16.40;;;16.90;89.80;;;;;;5003739;28;20466;-43
2021/09/27 07:05:48;;;;;;;28.70;16.40;;;16.90;89.80;;;;;;4998782;28;20503;-43
2021/09/27 07:08:18;;;;;;;26.00;15.60;;;16.90;89.80;;;;;;4998185;28;20489;-43
2021/09/27 07:10:45;;;;;;;25.33;16.00;;;17.00;89.80;;;;;;4998651;28;20465;-43
2021/09/27 07:13:14;;;;;;;26.27;16.97;;;17.00;89.80;;;;;;5005889;28;21186;-43
2021/09/27 07:15:42;;;;;;;23.23;15.57;;;17.00;89.80;;;;;;5017878;28;20465;-43
2021/09/27 07:18:10;;;;;;;25.70;16.10;;;17.00;89.80;;;;;;5000957;28;20460;-43
2021/09/27 07:20:37;;;;;;;22.50;15.93;;;17.00;89.80;;;;;;5002506;28;20449;-43
2021/09/27 07:23:04;;;;;;;23.50;15.37;;;17.10;89.80;;;;;;5019224;28;20452;-43
2021/09/27 07:25:33;;;;;;;26.40;17.07;;;17.10;89.80;;;;;;4999891;28;20457;-43
2021/09/27 07:28:00;;;;;;;21.57;15.27;;;17.00;89.80;;;;;;5001037;28;20494;-43
2021/09/27 07:30:27;;;;;;;25.70;15.17;;;17.10;89.80;;;;;;5003113;28;20486;-43
2021/09/27 07:32:55;;;;;;;24.60;16.60;;;17.10;89.80;;;;;;5002726;28;20460;-43
2021/09/27 07:35:25;;;;;;;25.93;16.40;;;17.10;89.80;;;;;;5002831;28;20528;-43
2021/09/27 07:37:52;;;;;;;22.97;15.90;;;17.20;89.80;;;;;;5000791;28;20797;-43
2021/09/27 07:40:22;;;;;;;26.00;16.87;;;17.20;89.80;;;;;;5002617;28;20535;-43
2021/09/27 07:42:50;;;;;;;25.03;16.30;;;17.30;89.80;;;;;;5003572;28;20463;-43
2021/09/27 07:45:19;;;;;;;26.67;15.13;;;17.30;89.80;;;;;;5000800;28;20453;-43
2021/09/27 07:47:46;;;;;;;22.07;15.27;;;17.30;89.80;;;;;;4999026;28;20489;-43
2021/09/27 07:50:15;;;;;;;28.73;17.47;;;17.30;89.80;;;;;;5004802;28;20444;-43
2021/09/27 07:52:42;;;;;;;24.67;15.57;;;17.30;89.80;;;;;;5004871;28;20449;-43
2021/09/27 07:55:10;;;;;;;25.43;16.23;;;17.30;89.80;;;;;;5001892;28;20482;-43
2021/09/27 07:57:37;;;;;;;24.20;15.60;;;17.40;89.80;;;;;;5005456;28;20884;-43
2021/09/27 08:00:06;;;;;;;23.20;15.40;;;17.40;89.80;;;;;;4999758;28;20457;-43
2021/09/27 08:02:33;;;;;;;23.07;15.07;;;17.50;89.80;;;;;;4995412;28;20476;-43
2021/09/27 08:05:00;;;;;;;21.83;14.50;;;17.50;89.80;;;;;;5003641;28;20803;-43
2021/09/27 08:07:26;;;;;;;17.80;13.43;;;17.60;89.80;;;;;;4999302;28;20516;-43
2021/09/27 08:09:53;;;;;;;24.03;14.20;;;17.60;89.80;;;;;;4998715;28;20448;-43
2021/09/27 08:12:20;;;;;;;19.90;13.80;;;17.60;89.80;;;;;;5002494;28;20452;-43
2021/09/27 08:14:47;;;;;;;19.63;12.53;;;17.60;89.70;;;;;;5000922;28;20477;-44
2021/09/27 08:17:14;;;;;;;19.43;13.30;;;17.60;89.60;;;;;;5003301;28;20464;-43
2021/09/27 08:19:43;;;;;;;16.20;11.63;;;17.70;89.40;;;;;;5000707;28;20453;-43
2021/09/27 08:22:10;;;;;;;17.20;11.93;;;17.70;89.40;;;;;;5001326;28;20473;-43
2021/09/27 08:24:37;;;;;;;15.63;12.27;;;17.70;89.40;;;;;;5000502;28;20460;-43
2021/09/27 08:27:04;;;;;;;14.97;11.53;;;17.70;88.40;;;;;;5000969;28;21017;-43
2021/09/27 08:29:31;;;;;;;15.33;11.33;;;17.70;88.30;;;;;;5003427;28;20484;-43
2021/09/27 08:31:58;;;;;;;20.30;12.90;;;17.70;88.80;;;;;;5004050;28;20464;-43
2021/09/27 08:34:25;;;;;;;15.67;11.33;;;17.70;89.10;;;;;;5006029;28;20472;-43
2021/09/27 08:36:51;;;;;;;16.30;12.53;;;17.70;89.10;;;;;;5004748;28;20448;-43
2021/09/27 08:39:22;;;;;;;17.23;12.77;;;17.80;89.10;;;;;;5009462;28;20451;-43
2021/09/27 08:41:56;;;;;;;16.87;11.30;;;17.80;89.20;;;;;;5010900;28;21167;-43
2021/09/27 08:44:50;;;;;;;19.70;13.50;;;17.90;89.10;;;;;;5004733;28;20447;-43
2021/09/27 08:47:36;;;;;;;16.97;11.93;;;17.90;89.10;;;;;;5005183;28;20568;-43
2021/09/27 08:50:18;;;;;;;16.33;12.43;;;17.90;89.20;;;;;;5005135;28;20456;-43
2021/09/27 08:52:44;;;;;;;14.97;12.60;;;18.00;89.30;;;;;;5003965;28;20455;-43
2021/09/27 08:55:14;;;;;;;21.83;15.33;;;18.10;87.40;;;;;;5001878;28;20456;-43
2021/09/27 08:57:55;;;;;;;16.07;13.70;;;18.20;87.90;;;;;;5005777;28;20457;-44
2021/09/27 09:00:48;;;;;;;17.73;14.10;;;18.20;88.10;;;;;;5005115;28;20479;-43
2021/09/27 09:03:27;;;;;;;21.27;13.70;;;18.40;87.70;;;;;;5002118;28;20591;-43
2021/09/27 09:06:28;;;;;;;20.27;12.63;;;18.40;87.40;;;;;;5007006;28;20475;-43
2021/09/27 09:09:06;;;;;;;15.73;13.43;;;18.50;86.90;;;;;;5003591;28;20527;-43
2021/09/27 09:11:39;;;;;;;17.40;13.93;;;18.40;86.40;;;;;;5003911;28;20550;-43
2021/09/27 09:14:25;;;;;;;18.97;13.60;;;18.50;86.80;;;;;;5003678;28;20475;-43
2021/09/27 09:16:53;;;;;;;20.23;14.27;;;18.50;86.90;;;;;;5002607;28;20460;-43
2021/09/27 09:19:26;;;;;;;18.83;13.03;;;18.50;86.90;;;;;;5001779;28;21003;-43
2021/09/27 09:22:03;;;;;;;15.13;12.80;;;18.50;87.00;;;;;;5003292;28;20465;-43
2021/09/27 09:24:38;;;;;;;17.50;12.90;;;18.60;86.90;;;;;;5004482;28;20452;-43
2021/09/27 09:27:09;;;;;;;17.97;14.80;;;18.60;87.00;;;;;;5003613;28;20892;-44
2021/09/27 09:29:38;;;;;;;16.97;14.33;;;18.70;86.60;;;;;;5001912;28;20493;-43
2021/09/27 09:32:16;;;;;;;17.30;13.50;;;18.80;85.80;;;;;;5003901;28;20466;-43
2021/09/27 09:34:45;;;;;;;15.53;13.03;;;18.90;85.60;;;;;;5018605;28;20464;-43
2021/09/27 09:37:23;;;;;;;16.77;13.23;;;18.90;85.60;;;;;;5005177;28;20456;-43
2021/09/27 09:40:01;;;;;;;18.83;13.63;;;18.90;85.80;;;;;;5001092;28;20857;-43
2021/09/27 09:42:34;;;;;;;15.60;12.50;;;18.80;86.10;;;;;;5003698;28;20837;-43
2021/09/27 09:45:16;;;;;;;14.53;11.07;;;18.80;86.00;;;;;;5008914;28;20456;-44
2021/09/27 09:47:43;;;;;;;14.53;11.90;;;18.90;86.20;;;;;;5005060;28;20457;-43
2021/09/27 09:50:21;;;;;;;13.90;11.83;;;18.90;85.90;;;;;;5000145;28;20483;-43
2021/09/27 09:52:53;;;;;;;13.27;10.80;;;18.90;86.10;;;;;;5005063;28;20863;-42
2021/09/27 09:55:39;;;;;;;13.17;10.83;;;19.00;86.10;;;;;;5001948;28;20461;-41
2021/09/27 09:58:08;;;;;;;13.03;10.43;;;19.10;85.70;;;;;;5008385;28;20452;-41
2021/09/27 10:00:43;;;;;;;12.10;10.80;;;19.10;85.90;;;;;;5001193;28;20641;-41
2021/09/27 10:03:35;;;;;;;11.83;10.53;;;19.20;84.80;;;;;;5005189;28;20469;-41
2021/09/27 10:06:23;;;;;;;15.20;11.40;;;19.20;84.20;;;;;;5004085;28;20462;-41
2021/09/27 10:08:57;;;;;;;13.77;11.87;;;19.20;84.40;;;;;;5003851;28;20847;-41
2021/09/27 10:11:51;;;;;;;14.13;12.17;;;19.20;84.70;;;;;;5002206;28;20503;-41
2021/09/27 10:14:23;;;;;;;14.03;11.70;;;19.20;84.90;;;;;;5004549;28;20485;-41
2021/09/27 10:16:56;;;;;;;15.73;11.60;;;19.20;84.50;;;;;;5003393;28;20449;-41
2021/09/27 10:19:32;;;;;;;14.80;11.43;;;19.20;84.80;;;;;;5005085;28;20531;-41
2021/09/27 10:21:58;;;;;;;14.37;11.00;;;19.20;85.20;;;;;;5003705;28;20498;-41
2021/09/27 10:24:45;;;;;;;13.73;11.47;;;19.20;85.40;;;;;;5003612;28;21002;-41
2021/09/27 10:27:30;;;;;;;16.30;12.87;;;19.30;85.60;;;;;;5002546;28;20492;-41
2021/09/27 10:30:05;;;;;;;14.03;9.77;;;19.30;85.60;;;;;;5008089;28;20568;-42
2021/09/27 10:33:03;;;;;;;12.77;11.47;;;19.40;85.40;;;;;;5003700;28;20451;-42
2021/09/27 10:35:46;;;;;;;13.70;10.97;;;19.50;84.90;;;;;;5002822;28;20961;-42
2021/09/27 10:38:20;;;;;;;13.23;10.53;;;19.70;84.30;;;;;;5015798;28;20487;-42
2021/09/27 10:40:49;;;;;;;14.87;10.13;;;20.00;83.10;;;;;;5002171;28;21968;-42
2021/09/27 10:43:23;;;;;;;12.53;9.03;;;20.10;82.70;;;;;;5003144;28;20455;-42
2021/09/27 10:45:57;;;;;;;9.50;8.53;;;20.20;82.00;;;;;;5002677;28;20440;-42
2021/09/27 10:48:25;;;;;;;10.40;8.77;;;20.30;81.00;;;;;;4999100;28;21029;-42
2021/09/27 10:51:04;;;;;;;10.87;9.73;;;20.30;81.50;;;;;;5002312;28;20461;-43
2021/09/27 10:53:33;;;;;;;11.03;8.90;;;20.30;82.30;;;;;;5000895;28;20460;-42
2021/09/27 10:56:22;;;;;;;10.90;8.30;;;20.30;82.20;;;;;;5000952;28;20452;-42
2021/09/27 10:58:56;;;;;;;9.90;8.00;;;20.40;81.70;;;;;;5002457;28;20461;-42
2021/09/27 11:01:44;;;;;;;11.67;9.33;;;20.50;81.40;;;;;;5000329;28;20481;-43
2021/09/27 11:04:42;;;;;;;10.13;8.27;;;20.50;81.80;;;;;;5004333;28;20461;-42
2021/09/27 11:07:23;;;;;;;9.70;8.10;;;20.50;82.10;;;;;;4997027;28;20490;-42
2021/09/27 11:09:54;;;;;;;8.20;7.40;;;20.60;81.30;;;;;;5016769;28;20488;-43
2021/09/27 11:12:24;;;;;;;10.10;9.00;;;20.60;81.30;;;;;;5000422;28;20976;-42
2021/09/27 11:15:17;;;;;;;10.50;7.83;;;20.60;80.70;;;;;;5002050;28;20598;-43
2021/09/27 11:17:59;;;;;;;11.10;9.37;;;20.60;81.50;;;;;;5001410;28;20457;-42
2021/09/27 11:20:47;;;;;;;15.43;12.33;;;20.60;81.70;;;;;;5004241;28;20979;-42
2021/09/27 11:23:19;;;;;;;18.57;14.30;;;20.50;81.70;;;;;;5003312;28;20456;-42
2021/09/27 11:26:14;;;;;;;17.67;13.70;;;20.40;81.50;;;;;;5005592;28;21001;-42
2021/09/27 11:29:03;;;;;;;18.07;13.80;;;20.30;81.70;;;;;;5003199;28;21220;-42
2021/09/27 11:31:37;;;;;;;17.40;13.37;;;20.30;81.80;;;;;;5004672;28;20456;-43
2021/09/27 11:34:45;;;;;;;16.17;12.60;;;20.30;81.80;;;;;;5002513;28;20444;-42
2021/09/27 11:37:14;;;;;;;15.50;11.40;;;20.20;82.00;;;;;;4965151;28;20955;-42
2021/09/27 11:39:49;;;;;;;15.47;12.17;;;20.30;81.90;;;;;;4995104;28;20468;-42
2021/09/27 11:42:18;;;;;;;14.47;12.57;;;20.30;81.80;;;;;;5002400;28;20455;-43
2021/09/27 11:44:53;;;;;;;15.70;12.50;;;20.30;82.00;;;;;;5001097;28;20468;-43
2021/09/27 11:47:43;;;;;;;16.30;13.40;;;20.40;82.10;;;;;;5000963;28;20496;-42
2021/09/27 11:50:45;;;;;;;16.93;12.90;;;20.40;82.20;;;;;;5000212;28;20480;-43
2021/09/27 11:53:34;;;;;;;17.03;13.10;;;20.30;82.30;;;;;;5000061;28;20464;-42
2021/09/27 11:56:34;;;;;;;20.10;13.03;;;20.30;82.40;;;;;;5003014;28;20445;-43
2021/09/27 11:59:22;;;;;;;14.47;12.83;;;20.30;82.80;;;;;;4997252;28;20551;-42
2021/09/27 12:02:13;;;;;;;15.07;11.10;;;20.30;82.90;;;;;;5001323;28;20464;-42
2021/09/27 12:05:28;;;;;;;14.27;11.63;;;20.40;82.90;;;;;;5000841;28;20456;-42
2021/09/27 12:08:24;;;;;;;13.47;11.30;;;20.40;82.70;;;;;;4991378;28;20877;-42
2021/09/27 12:11:02;;;;;;;15.40;12.00;;;20.40;82.60;;;;;;4998374;28;21008;-42
2021/09/27 12:13:50;;;;;;;16.53;12.10;;;20.50;82.40;;;;;;5001932;28;20474;-43
2021/09/27 12:16:22;;;;;;;18.37;12.60;;;20.60;82.00;;;;;;5003104;28;20441;-42
2021/09/27 12:18:54;;;;;;;16.10;13.13;;;20.60;81.90;;;;;;5000908;28;20575;-42
2021/09/27 12:21:31;;;;;;;17.80;13.00;;;20.70;81.60;;;;;;5002510;28;20967;-42
2021/09/27 12:24:15;;;;;;;13.97;11.60;;;20.70;81.30;;;;;;5003590;28;20919;-42
2021/09/27 12:27:14;;;;;;;19.73;12.87;;;20.70;81.10;;;;;;4996923;28;20472;-42
2021/09/27 12:29:58;;;;;;;17.00;12.67;;;20.80;80.90;;;;;;5000918;28;20488;-42
2021/09/27 12:32:35;;;;;;;17.50;13.60;;;20.80;80.70;;;;;;5000823;28;20543;-42
2021/09/27 12:35:06;;;;;;;19.77;13.57;;;20.70;80.70;;;;;;5003439;28;20446;-42
2021/09/27 12:37:40;;;;;;;16.30;11.00;;;20.70;81.10;;;;;;5001339;28;20449;-42
2021/09/27 12:40:11;;;;;;;16.30;12.30;;;20.60;81.30;;;;;;5020509;28;20452;-42
2021/09/27 12:42:43;;;;;;;16.03;13.07;;;20.60;81.60;;;;;;5000783;28;20896;-43
2021/09/27 12:45:34;;;;;;;13.87;12.20;;;20.60;81.60;;;;;;5006172;28;20456;-42
2021/09/27 12:48:09;;;;;;;14.00;11.10;;;20.70;81.50;;;;;;5000561;28;20456;-43
2021/09/27 12:50:41;;;;;;;15.43;12.03;;;20.70;81.40;;;;;;4999828;28;20491;-42
2021/09/27 12:53:14;;;;;;;13.20;11.03;;;20.70;81.60;;;;;;5004947;28;20832;-42
2021/09/27 12:55:46;;;;;;;19.63;11.93;;;20.80;81.50;;;;;;5002013;28;21098;-42
2021/09/27 12:58:35;;;;;;;13.97;12.20;;;20.80;81.80;;;;;;5000300;28;20872;-42
2021/09/27 13:01:05;;;;;;;12.43;10.53;;;20.80;81.70;;;;;;5006563;28;20523;-42
2021/09/27 13:03:33;;;;;;;17.90;11.13;;;20.90;81.60;;;;;;5002024;28;20456;-42
2021/09/27 13:06:13;;;;;;;15.13;11.50;;;20.90;81.60;;;;;;4999833;28;20457;-42
2021/09/27 13:08:45;;;;;;;15.10;11.80;;;21.00;81.40;;;;;;4999687;28;20467;-42
2021/09/27 13:11:43;;;;;;;15.33;11.47;;;21.10;81.60;;;;;;5000514;28;20459;-43
2021/09/27 13:14:29;;;;;;;12.13;9.40;;;21.20;81.40;;;;;;4997087;28;20484;-43
2021/09/27 13:17:18;;;;;;;14.43;9.70;;;21.20;81.00;;;;;;5001805;28;20451;-42
2021/09/27 13:19:50;;;;;;;12.40;9.67;;;21.30;80.10;;;;;;5003134;28;20962;-42
2021/09/27 13:22:28;;;;;;;11.10;8.67;;;21.30;80.10;;;;;;5004216;28;20491;-42